createdAt,value
2018-07-09T00:01:06.821Z,17.50
2018-07-09T00:03:34.692Z,17.50
2018-07-09T00:06:02.511Z,17.50
2018-07-09T00:08:30.374Z,17.40
2018-07-09T00:11:01.757Z,17.50
2018-07-09T00:13:32.049Z,17.30
2018-07-09T00:16:00.093Z,17.30
2018-07-09T00:18:28.077Z,17.20
2018-07-09T00:20:55.981Z,17.20
2018-07-09T00:23:23.945Z,17.20
2018-07-09T00:25:52.507Z,17.10
2018-07-09T00:28:21.126Z,17.10
2018-07-09T00:30:49.080Z,17.00
2018-07-09T00:33:17.584Z,17.00
2018-07-09T00:35:45.971Z,16.80
2018-07-09T00:38:13.905Z,16.70
2018-07-09T00:40:42.911Z,16.80
2018-07-09T00:43:10.896Z,16.90
2018-07-09T00:45:41.008Z,16.80
2018-07-09T00:48:10.669Z,16.90
2018-07-09T00:50:42.169Z,16.70
2018-07-09T00:53:10.304Z,16.80
2018-07-09T00:55:38.331Z,16.60
2018-07-09T00:58:06.648Z,16.60
2018-07-09T01:00:34.529Z,16.50
2018-07-09T01:03:02.387Z,16.60
2018-07-09T01:05:30.364Z,16.70
2018-07-09T01:07:58.288Z,16.50
2018-07-09T01:10:26.278Z,16.60
2018-07-09T01:12:54.489Z,16.60
2018-07-09T01:17:50.281Z,16.50
2018-07-09T01:20:18.356Z,16.30
2018-07-09T01:22:46.242Z,16.50
2018-07-09T01:25:14.089Z,16.50
2018-07-09T01:27:42.361Z,16.50
2018-07-09T01:32:40.664Z,16.90
2018-07-09T01:37:38.283Z,16.50
2018-07-09T01:40:06.774Z,16.70
2018-07-09T01:42:35.844Z,16.50
2018-07-09T01:45:03.827Z,16.60
2018-07-09T01:47:31.730Z,16.60
2018-07-09T01:49:59.861Z,16.60
2018-07-09T01:52:28.127Z,16.50
2018-07-09T01:54:56.614Z,16.50
2018-07-09T01:57:24.505Z,16.50
2018-07-09T01:59:52.717Z,16.60
2018-07-09T02:02:20.653Z,16.50
2018-07-09T02:04:48.500Z,16.40
2018-07-09T02:07:16.374Z,16.40
2018-07-09T02:09:44.318Z,16.50
2018-07-09T02:12:12.157Z,16.50
2018-07-09T02:14:42.714Z,16.50
2018-07-09T02:17:10.645Z,16.40
2018-07-09T02:19:38.977Z,16.40
2018-07-09T02:22:06.949Z,16.50
2018-07-09T02:24:34.812Z,16.40
2018-07-09T02:27:02.805Z,16.50
2018-07-09T02:29:30.708Z,16.40
2018-07-09T02:31:58.617Z,16.40
2018-07-09T02:34:26.569Z,16.20
2018-07-09T02:39:22.293Z,16.20
2018-07-09T02:41:51.104Z,16.20
2018-07-09T02:44:18.999Z,16.20
2018-07-09T02:46:46.871Z,16.20
2018-07-09T02:49:14.929Z,16.10
2018-07-09T02:51:42.829Z,16.10
2018-07-09T02:54:10.772Z,16.00
2018-07-09T03:01:34.315Z,15.90
2018-07-09T03:04:02.289Z,15.90
2018-07-09T03:06:30.122Z,15.90
2018-07-09T03:08:58.018Z,15.90
2018-07-09T03:11:25.868Z,15.90
2018-07-09T03:13:53.854Z,16.00
2018-07-09T03:16:21.824Z,15.90
2018-07-09T03:18:49.711Z,15.90
2018-07-09T03:21:17.530Z,15.90
2018-07-09T03:23:45.489Z,15.90
2018-07-09T03:26:13.417Z,16.00
2018-07-09T03:28:41.406Z,15.90
2018-07-09T03:31:09.332Z,15.90
2018-07-09T03:33:37.197Z,15.90
2018-07-09T03:36:05.169Z,15.90
2018-07-09T03:38:33.057Z,15.90
2018-07-09T03:41:01.073Z,15.80
2018-07-09T03:43:28.999Z,15.90
2018-07-09T03:45:56.933Z,15.90
2018-07-09T03:48:24.800Z,15.80
2018-07-09T03:50:52.701Z,15.90
2018-07-09T03:53:20.535Z,15.90
2018-07-09T03:55:48.411Z,15.90
2018-07-09T03:58:16.317Z,15.90
2018-07-09T04:00:44.721Z,16.00
2018-07-09T04:03:12.716Z,15.90
2018-07-09T04:08:09.610Z,15.90
2018-07-09T04:10:37.584Z,15.90
2018-07-09T04:13:05.394Z,15.90
2018-07-09T04:15:33.253Z,15.90
2018-07-09T04:18:01.205Z,16.00
2018-07-09T04:20:29.030Z,16.00
2018-07-09T04:22:56.909Z,16.10
2018-07-09T04:25:24.807Z,16.10
2018-07-09T04:27:52.694Z,16.00
2018-07-09T04:30:20.529Z,16.20
2018-07-09T04:32:48.449Z,16.20
2018-07-09T04:35:16.403Z,16.20
2018-07-09T04:37:44.468Z,16.20
2018-07-09T04:40:12.300Z,16.30
2018-07-09T04:42:40.205Z,16.30
2018-07-09T04:45:08.292Z,16.40
2018-07-09T04:47:36.220Z,16.40
2018-07-09T04:50:05.174Z,16.50
2018-07-09T04:52:33.119Z,16.60
2018-07-09T04:55:01.029Z,16.70
2018-07-09T04:57:28.981Z,16.70
2018-07-09T04:59:56.893Z,16.80
2018-07-09T05:02:24.778Z,17.10
2018-07-09T05:04:52.717Z,18.00
2018-07-09T05:07:20.617Z,18.90
2018-07-09T05:09:48.440Z,19.90
2018-07-09T05:12:16.369Z,20.70
2018-07-09T05:14:44.325Z,21.60
2018-07-09T05:17:13.689Z,22.30
2018-07-09T05:19:41.626Z,22.50
2018-07-09T05:22:09.541Z,22.70
2018-07-09T05:24:37.454Z,22.80
2018-07-09T05:27:06.468Z,23.40
2018-07-09T05:29:35.391Z,23.90
2018-07-09T05:34:31.430Z,23.70
2018-07-09T05:36:59.322Z,24.10
2018-07-09T05:39:27.205Z,23.40
2018-07-09T05:44:23.576Z,23.80
2018-07-09T05:46:52.449Z,24.40
2018-07-09T05:49:21.041Z,23.90
2018-07-09T05:51:48.913Z,23.90
2018-07-09T05:54:17.010Z,23.70
2018-07-09T05:56:45.395Z,24.20
2018-07-09T05:59:13.297Z,24.00
2018-07-09T06:01:41.223Z,23.50
2018-07-09T06:04:09.225Z,23.50
2018-07-09T06:06:37.609Z,24.00
2018-07-09T06:09:08.041Z,24.10
2018-07-09T06:11:36.412Z,23.60
2018-07-09T06:14:04.590Z,23.40
2018-07-09T06:16:33.260Z,22.80
2018-07-09T06:19:01.170Z,22.60
2018-07-09T06:21:29.113Z,22.30
2018-07-09T06:23:57.217Z,22.80
2018-07-09T06:26:25.279Z,23.50
2018-07-09T06:28:53.365Z,23.40
2018-07-09T06:31:21.288Z,23.80
2018-07-09T06:33:49.330Z,23.30
2018-07-09T06:36:17.736Z,23.70
2018-07-09T06:38:46.225Z,24.20
2018-07-09T06:41:14.254Z,24.50
2018-07-09T06:43:42.334Z,24.20
2018-07-09T06:46:11.115Z,23.70
2018-07-09T06:48:39.053Z,23.70
2018-07-09T06:51:07.829Z,23.70
2018-07-09T06:53:36.854Z,23.10
2018-07-09T06:56:05.681Z,23.50
2018-07-09T06:58:34.031Z,23.70
2018-07-09T07:01:01.993Z,24.00
2018-07-09T07:03:30.021Z,24.70
2018-07-09T07:05:57.939Z,23.80
2018-07-09T07:08:25.793Z,23.40
2018-07-09T07:10:54.665Z,23.10
2018-07-09T07:13:23.281Z,23.40
2018-07-09T07:15:51.245Z,23.70
2018-07-09T07:18:19.135Z,23.40
2018-07-09T07:20:47.057Z,23.20
2018-07-09T07:23:14.963Z,22.60
2018-07-09T07:25:42.929Z,22.80
2018-07-09T07:28:11.088Z,22.80
2018-07-09T07:30:39.725Z,22.90
2018-07-09T07:33:08.150Z,23.10
2018-07-09T07:35:36.180Z,23.00
2018-07-09T07:38:04.169Z,23.00
2018-07-09T07:40:32.846Z,22.90
2018-07-09T07:43:01.378Z,22.40
2018-07-09T07:45:29.240Z,22.30
2018-07-09T07:50:25.211Z,22.70
2018-07-09T07:52:52.957Z,22.70
2018-07-09T07:55:20.782Z,22.80
2018-07-09T07:57:48.717Z,22.70
2018-07-09T08:00:16.821Z,22.60
2018-07-09T08:02:44.880Z,22.60
2018-07-09T08:05:12.822Z,22.50
2018-07-09T08:07:41.242Z,22.60
2018-07-09T08:10:09.309Z,22.70
2018-07-09T08:15:05.484Z,22.60
2018-07-09T08:17:33.396Z,22.70
2018-07-09T08:22:29.209Z,22.50
2018-07-09T08:24:57.224Z,22.40
2018-07-09T08:29:52.876Z,22.70
2018-07-09T08:32:20.791Z,22.70
2018-07-09T08:34:48.737Z,22.80
2018-07-09T08:37:16.673Z,22.80
2018-07-09T08:39:44.617Z,22.80
2018-07-09T08:42:12.541Z,22.70
2018-07-09T08:44:41.729Z,22.80
2018-07-09T08:47:09.641Z,22.80
2018-07-09T08:49:37.492Z,22.80
2018-07-09T08:54:35.182Z,22.70
2018-07-09T08:57:03.389Z,23.00
2018-07-09T08:59:31.608Z,23.00
2018-07-09T09:01:59.541Z,23.00
2018-07-09T09:04:27.379Z,23.40
2018-07-09T09:09:23.389Z,23.10
2018-07-09T09:11:51.321Z,23.30
2018-07-09T09:14:19.205Z,23.00
2018-07-09T09:16:47.081Z,23.40
2018-07-09T09:19:14.997Z,23.20
2018-07-09T09:21:42.929Z,23.40
2018-07-09T09:24:10.800Z,23.40
2018-07-09T09:26:38.730Z,23.30
2018-07-09T09:29:06.597Z,23.40
2018-07-09T09:31:34.671Z,23.30
2018-07-09T09:34:02.551Z,23.40
2018-07-09T09:36:30.502Z,23.80
2018-07-09T09:38:58.434Z,23.50
2018-07-09T09:41:26.340Z,23.60
2018-07-09T09:43:54.628Z,23.50
2018-07-09T09:46:25.330Z,23.60
2018-07-09T09:48:53.239Z,23.80
2018-07-09T09:51:21.168Z,23.70
2018-07-09T09:53:49.034Z,23.60
2018-07-09T09:56:18.661Z,24.00
2018-07-09T09:58:46.645Z,24.50
2018-07-09T10:01:14.584Z,24.40
2018-07-09T10:03:42.737Z,25.10
2018-07-09T10:06:11.037Z,26.20
2018-07-09T10:08:39.042Z,27.80
2018-07-09T10:11:06.924Z,28.40
2018-07-09T10:13:34.861Z,29.20
2018-07-09T10:16:02.865Z,29.30
2018-07-09T10:18:30.847Z,28.90
2018-07-09T10:20:58.785Z,29.40
2018-07-09T10:23:26.687Z,29.50
2018-07-09T10:25:54.777Z,29.40
2018-07-09T10:28:22.950Z,30.40
2018-07-09T10:30:51.367Z,30.70
2018-07-09T10:33:19.213Z,31.00
2018-07-09T10:35:47.081Z,32.00
2018-07-09T10:38:14.936Z,32.50
2018-07-09T10:40:42.809Z,32.30
2018-07-09T10:43:10.701Z,31.70
2018-07-09T10:45:38.625Z,32.40
2018-07-09T10:50:35.268Z,33.50
2018-07-09T10:53:03.539Z,34.30
2018-07-09T10:55:31.561Z,33.40
2018-07-09T10:57:59.448Z,33.70
2018-07-09T11:00:27.382Z,33.70
2018-07-09T11:02:55.348Z,34.50
2018-07-09T11:05:23.674Z,34.40
2018-07-09T11:07:51.569Z,34.50
2018-07-09T11:10:19.494Z,34.40
2018-07-09T11:12:47.367Z,35.70
2018-07-09T11:15:15.308Z,34.70
2018-07-09T11:17:43.133Z,34.60
2018-07-09T11:20:11.089Z,34.10
2018-07-09T11:22:39.273Z,35.10
2018-07-09T11:25:07.178Z,35.80
2018-07-09T11:27:35.046Z,35.00
2018-07-09T11:30:03.080Z,34.70
2018-07-09T11:32:30.987Z,35.00
2018-07-09T11:34:59.340Z,35.20
2018-07-09T11:37:27.484Z,35.60
2018-07-09T11:39:55.477Z,36.10
2018-07-09T11:42:23.438Z,36.50
2018-07-09T11:44:51.488Z,36.20
2018-07-09T11:47:19.351Z,36.10
2018-07-09T11:49:47.150Z,36.00
2018-07-09T11:52:15.103Z,36.00
2018-07-09T11:54:43.109Z,36.50
2018-07-09T11:57:10.969Z,36.60
2018-07-09T11:59:39.821Z,35.50
2018-07-09T12:02:07.765Z,34.30
2018-07-09T12:04:35.757Z,34.50
2018-07-09T12:07:03.609Z,34.40
2018-07-09T12:09:31.672Z,35.00
2018-07-09T12:11:59.579Z,35.50
2018-07-09T12:14:27.473Z,35.80
2018-07-09T12:16:55.396Z,36.00
2018-07-09T12:19:23.237Z,35.70
2018-07-09T12:21:51.360Z,35.30
2018-07-09T12:24:19.168Z,36.10
2018-07-09T12:26:47.101Z,35.20
2018-07-09T12:29:15.071Z,35.40
2018-07-09T12:31:43.082Z,36.30
2018-07-09T12:34:11.125Z,36.50
2018-07-09T12:39:07.392Z,35.30
2018-07-09T12:41:35.941Z,35.40
2018-07-09T12:44:03.986Z,35.60
2018-07-09T12:46:32.077Z,35.80
2018-07-09T12:49:01.188Z,36.00
2018-07-09T12:51:29.252Z,35.70
2018-07-09T12:53:57.432Z,35.60
2018-07-09T12:56:25.440Z,35.10
2018-07-09T12:58:53.608Z,35.70
2018-07-09T13:01:21.488Z,35.40
2018-07-09T13:03:49.488Z,35.40
2018-07-09T13:06:17.376Z,35.60
2018-07-09T13:08:45.283Z,34.80
2018-07-09T13:11:13.241Z,34.40
2018-07-09T13:13:41.189Z,35.00
2018-07-09T13:16:09.160Z,33.80
2018-07-09T13:18:37.125Z,34.50
2018-07-09T13:21:05.091Z,34.50
2018-07-09T13:26:00.847Z,33.60
2018-07-09T13:28:28.715Z,33.90
2018-07-09T13:30:56.817Z,34.00
2018-07-09T13:33:24.921Z,33.30
2018-07-09T13:35:52.965Z,33.80
2018-07-09T13:38:24.053Z,34.20
2018-07-09T13:40:51.983Z,34.90
2018-07-09T13:43:19.946Z,34.40
2018-07-09T13:45:47.753Z,33.60
2018-07-09T13:48:15.680Z,33.30
2018-07-09T13:50:43.622Z,32.90
2018-07-09T13:53:11.605Z,33.00
2018-07-09T13:55:39.654Z,33.50
2018-07-09T13:58:07.904Z,33.30
2018-07-09T14:00:35.805Z,32.30
2018-07-09T14:03:03.761Z,31.40
2018-07-09T14:05:31.684Z,31.70
2018-07-09T14:07:59.524Z,32.00
2018-07-09T14:10:27.515Z,31.90
2018-07-09T14:12:55.354Z,31.60
2018-07-09T14:15:23.164Z,31.00
2018-07-09T14:17:51.084Z,29.90
2018-07-09T14:20:27.113Z,30.80
2018-07-09T14:22:54.989Z,31.00
2018-07-09T14:25:22.888Z,31.20
2018-07-09T14:27:50.780Z,31.00
2018-07-09T14:30:18.989Z,30.60
2018-07-09T14:32:46.980Z,31.00
2018-07-09T14:37:42.718Z,29.90
2018-07-09T14:40:10.695Z,29.30
2018-07-09T14:42:38.597Z,29.80
2018-07-09T14:45:06.607Z,29.60
2018-07-09T14:47:34.617Z,29.90
2018-07-09T14:50:02.850Z,29.70
2018-07-09T14:52:30.792Z,29.80
2018-07-09T14:54:58.983Z,29.80
2018-07-09T14:57:26.964Z,29.70
2018-07-09T14:59:54.940Z,29.60
2018-07-09T15:02:23.003Z,29.20
2018-07-09T15:18:43.733Z,28.20
2018-07-09T15:21:11.854Z,28.00
2018-07-09T15:23:39.652Z,27.70
2018-07-09T15:26:07.613Z,28.00
2018-07-09T15:28:35.592Z,28.00
2018-07-09T15:31:03.600Z,27.80
2018-07-09T15:33:31.461Z,27.70
2018-07-09T15:35:59.397Z,27.90
2018-07-09T15:38:27.318Z,27.90
2018-07-09T15:40:55.212Z,27.60
2018-07-09T15:43:40.441Z,27.60
2018-07-09T15:46:08.400Z,27.60
2018-07-09T15:48:36.241Z,27.90
2018-07-09T15:51:04.241Z,27.50
2018-07-09T15:53:32.145Z,27.90
2018-07-09T15:56:00.009Z,27.60
2018-07-09T15:58:27.884Z,27.70
2018-07-09T16:00:55.813Z,28.00
2018-07-09T16:03:23.721Z,27.90
2018-07-09T16:05:51.777Z,27.80
2018-07-09T16:08:19.601Z,27.40
2018-07-09T16:10:47.441Z,27.50
2018-07-09T16:13:15.375Z,27.50
2018-07-09T16:15:43.328Z,27.80
2018-07-09T16:18:11.230Z,27.70
2018-07-09T16:20:39.133Z,27.80
2018-07-09T16:23:06.976Z,27.40
2018-07-09T16:25:34.881Z,27.00
2018-07-09T16:28:02.825Z,26.80
2018-07-09T16:30:30.666Z,27.30
2018-07-09T16:32:58.521Z,26.90
2018-07-09T16:35:26.567Z,27.20
2018-07-09T16:37:54.481Z,27.10
2018-07-09T16:40:22.399Z,26.90
2018-07-09T16:42:50.387Z,27.00
2018-07-09T16:45:18.285Z,26.80
2018-07-09T16:47:46.925Z,26.80
2018-07-09T16:50:15.829Z,26.80
2018-07-09T16:52:43.684Z,26.60
2018-07-09T16:55:11.482Z,26.60
2018-07-09T16:57:39.371Z,26.40
2018-07-09T17:00:07.441Z,26.30
2018-07-09T17:02:35.337Z,26.10
2018-07-09T17:05:03.269Z,26.20
2018-07-09T17:07:31.236Z,26.30
2018-07-09T17:09:59.132Z,26.20
2018-07-09T17:12:27.037Z,26.00
2018-07-09T17:14:55.009Z,26.10
2018-07-09T17:17:22.891Z,25.90
2018-07-09T17:19:50.837Z,26.00
2018-07-09T17:22:18.801Z,25.90
2018-07-09T17:24:46.784Z,25.90
2018-07-09T17:27:14.768Z,25.80
2018-07-09T17:29:42.605Z,25.50
2018-07-09T17:32:10.469Z,25.30
2018-07-09T17:34:38.341Z,25.20
2018-07-09T17:37:06.213Z,25.00
2018-07-09T17:39:34.017Z,24.90
2018-07-09T17:42:01.982Z,24.70
2018-07-09T17:44:29.833Z,24.70
2018-07-09T17:46:57.746Z,24.80
2018-07-09T17:49:25.745Z,24.70
2018-07-09T17:51:53.634Z,24.70
2018-07-09T17:54:21.515Z,24.80
2018-07-09T17:56:49.436Z,24.80
2018-07-09T17:59:17.266Z,24.60
2018-07-09T18:01:45.234Z,24.50
2018-07-09T18:04:13.187Z,24.30
2018-07-09T18:09:08.962Z,24.40
2018-07-09T18:11:36.928Z,24.40
2018-07-09T18:14:04.920Z,24.50
2018-07-09T18:16:32.825Z,24.30
2018-07-09T18:19:00.900Z,24.30
2018-07-09T18:21:28.877Z,24.20
2018-07-09T18:23:56.648Z,24.20
2018-07-09T18:26:24.549Z,24.00
2018-07-09T18:28:52.612Z,23.90
2018-07-09T18:31:20.541Z,23.90
2018-07-09T18:33:48.609Z,23.80
2018-07-09T18:36:16.553Z,23.70
2018-07-09T18:38:44.594Z,23.60
2018-07-09T18:41:12.345Z,23.50
2018-07-09T18:43:41.537Z,23.50
2018-07-09T18:46:09.665Z,23.40
2018-07-09T18:48:37.733Z,23.30
2018-07-09T18:51:05.696Z,23.30
2018-07-09T18:53:33.528Z,23.20
2018-07-09T18:56:01.540Z,23.10
2018-07-09T18:58:29.551Z,23.10
2018-07-09T19:00:57.420Z,23.00
2018-07-09T19:03:24.767Z,22.90
2018-07-09T19:07:09.497Z,22.90
2018-07-09T19:09:38.204Z,22.80
2018-07-09T19:12:07.529Z,22.70
2018-07-09T19:14:42.236Z,22.70
2018-07-09T19:18:26.278Z,22.60
2018-07-09T19:21:37.983Z,22.50
2018-07-09T19:24:05.762Z,22.30
2018-07-09T19:26:32.167Z,22.20
2018-07-09T19:28:58.578Z,22.10
2018-07-09T19:31:24.976Z,22.10
2018-07-09T19:33:51.665Z,22.00
2018-07-09T19:36:18.112Z,21.90
2018-07-09T19:38:44.557Z,21.80
2018-07-09T19:41:10.993Z,21.80
2018-07-09T19:43:37.799Z,21.80
2018-07-09T19:46:04.501Z,21.70
2018-07-09T19:48:32.971Z,21.70
2018-07-09T19:50:59.489Z,21.60
2018-07-09T19:53:25.861Z,21.70
2018-07-09T19:55:52.273Z,21.60
2018-07-09T19:58:19.090Z,21.60
2018-07-09T20:00:45.638Z,21.60
2018-07-09T20:03:12.000Z,21.50
2018-07-09T20:05:38.465Z,21.50
2018-07-09T20:08:05.700Z,21.50
2018-07-09T20:10:37.855Z,21.50
2018-07-09T20:13:10.032Z,21.50
2018-07-09T20:15:42.231Z,21.40
2018-07-09T20:18:08.688Z,21.50
2018-07-09T20:20:35.081Z,21.40
2018-07-09T20:23:01.503Z,21.40
2018-07-09T20:25:27.861Z,21.40
2018-07-09T20:27:54.324Z,21.30
2018-07-09T20:30:20.741Z,21.30
2018-07-09T20:32:47.237Z,21.20
2018-07-09T20:37:40.767Z,21.20
2018-07-09T20:40:07.292Z,21.10
2018-07-09T20:42:33.680Z,21.10
2018-07-09T20:45:00.099Z,21.10
2018-07-09T20:47:26.520Z,21.00
2018-07-09T20:49:52.960Z,21.00
2018-07-09T20:52:19.407Z,21.00
2018-07-09T20:54:45.994Z,21.00
2018-07-09T20:57:12.782Z,21.00
2018-07-09T20:59:39.154Z,21.00
2018-07-09T21:02:05.561Z,21.00
2018-07-09T21:04:32.289Z,21.00
2018-07-09T21:09:27.693Z,21.00
2018-07-09T21:11:56.316Z,21.00
2018-07-09T21:14:22.760Z,21.00
2018-07-09T21:16:49.249Z,21.00
2018-07-09T21:19:15.613Z,21.00
2018-07-09T21:24:09.096Z,21.00
2018-07-09T21:26:35.720Z,21.00
2018-07-09T21:29:02.109Z,20.90
2018-07-09T21:31:28.510Z,20.90
2018-07-09T21:33:54.942Z,21.00
2018-07-09T21:36:21.433Z,21.00
2018-07-09T21:38:47.906Z,21.00
2018-07-09T21:41:14.370Z,21.00
2018-07-09T21:43:40.774Z,21.10
2018-07-09T21:46:07.197Z,21.00
2018-07-09T21:48:34.025Z,21.00
2018-07-09T21:51:00.390Z,21.00
2018-07-09T21:53:27.540Z,21.00
2018-07-09T21:55:54.293Z,20.90
2018-07-09T21:58:21.166Z,20.90
2018-07-09T22:00:47.585Z,21.00
2018-07-09T22:03:13.993Z,20.90
2018-07-09T22:05:40.409Z,21.00
2018-07-09T22:08:06.825Z,21.00
2018-07-09T22:10:33.220Z,21.00
2018-07-09T22:12:59.616Z,21.00
2018-07-09T22:15:26.050Z,21.00
2018-07-09T22:17:52.404Z,21.10
2018-07-09T22:22:45.708Z,21.10
2018-07-09T22:25:12.097Z,21.10
2018-07-09T22:27:38.485Z,21.10
2018-07-09T22:30:04.941Z,21.00
2018-07-09T22:32:32.907Z,21.00
2018-07-09T22:35:00.794Z,21.00
2018-07-09T22:37:28.645Z,21.00
2018-07-09T22:39:56.525Z,21.00
2018-07-09T22:42:24.404Z,21.00
2018-07-09T22:44:52.360Z,20.90
2018-07-09T22:47:20.280Z,20.90
2018-07-09T22:49:48.112Z,20.90
2018-07-09T22:52:16.080Z,20.90
2018-07-09T22:54:43.924Z,20.90
2018-07-09T22:57:11.831Z,20.90
2018-07-09T22:59:39.729Z,20.80
2018-07-09T23:02:07.601Z,20.70
2018-07-09T23:04:35.426Z,20.80
2018-07-09T23:07:03.338Z,20.80
2018-07-09T23:13:16.298Z,20.70
2018-07-09T23:17:04.906Z,20.70
2018-07-09T23:21:06.787Z,20.70
2018-07-09T23:23:33.179Z,20.60
2018-07-09T23:25:59.525Z,20.60
2018-07-09T23:28:25.933Z,20.60
2018-07-09T23:30:52.325Z,20.60
2018-07-09T23:33:18.685Z,20.60
2018-07-09T23:35:45.102Z,20.60
2018-07-09T23:38:11.503Z,20.50
2018-07-09T23:40:37.918Z,20.50
2018-07-09T23:43:04.353Z,20.50
2018-07-09T23:45:30.803Z,20.50
2018-07-09T23:47:57.177Z,20.50
2018-07-09T23:50:23.624Z,20.50
2018-07-09T23:52:50.028Z,20.40
2018-07-09T23:55:16.442Z,20.40
2018-07-09T23:58:16.199Z,20.40
